createdAt,value
2022-10-22T00:01:28.615Z,14.53
2022-10-22T00:03:56.730Z,14.54
2022-10-22T00:06:25.131Z,14.56
2022-10-22T00:08:53.736Z,14.64
2022-10-22T00:11:22.225Z,14.64
2022-10-22T00:13:51.807Z,14.68
2022-10-22T00:16:20.095Z,14.73
2022-10-22T00:18:48.486Z,14.72
2022-10-22T00:21:16.779Z,14.83
2022-10-22T00:23:45.284Z,14.80
2022-10-22T00:26:13.710Z,14.75
2022-10-22T00:28:42.096Z,14.70
2022-10-22T00:31:12.008Z,14.74
2022-10-22T00:33:40.226Z,14.78
2022-10-22T00:36:09.495Z,14.75
2022-10-22T00:38:37.731Z,14.77
2022-10-22T00:41:06.136Z,14.75
2022-10-22T00:43:34.390Z,14.79
2022-10-22T00:46:03.382Z,14.75
2022-10-22T00:48:34.485Z,14.71
2022-10-22T00:51:06.232Z,14.75
2022-10-22T00:53:38.983Z,14.81
2022-10-22T00:56:18.385Z,14.79
2022-10-22T00:58:56.366Z,14.84
2022-10-22T01:01:30.502Z,14.84
2022-10-22T01:04:09.299Z,14.87
2022-10-22T01:06:37.567Z,14.89
2022-10-22T01:09:17.831Z,14.92
2022-10-22T01:11:58.773Z,14.91
2022-10-22T01:14:36.509Z,14.92
2022-10-22T01:20:14.946Z,14.88
2022-10-22T01:23:01.081Z,14.86
2022-10-22T01:25:40.260Z,14.81
2022-10-22T01:28:21.441Z,14.73
2022-10-22T01:30:59.141Z,14.66
2022-10-22T01:33:32.906Z,14.69
2022-10-22T01:36:08.178Z,14.55
2022-10-22T01:38:37.541Z,14.60
2022-10-22T01:41:06.162Z,14.60
2022-10-22T01:43:34.386Z,14.60
2022-10-22T01:46:06.354Z,14.52
2022-10-22T01:48:47.339Z,14.50
2022-10-22T01:51:28.387Z,14.44
2022-10-22T01:54:01.931Z,14.39
2022-10-22T01:56:49.275Z,14.36
2022-10-22T01:59:26.160Z,14.36
2022-10-22T02:02:05.164Z,14.28
2022-10-22T02:04:38.505Z,14.25
2022-10-22T02:07:10.088Z,14.27
2022-10-22T02:09:40.633Z,14.30
2022-10-22T02:12:10.575Z,14.32
2022-10-22T02:14:44.176Z,14.28
2022-10-22T02:17:17.573Z,14.23
2022-10-22T02:19:51.698Z,14.21
2022-10-22T02:22:21.098Z,14.19
2022-10-22T02:24:50.200Z,14.24
2022-10-22T02:27:26.864Z,14.26
2022-10-22T02:30:02.822Z,14.18
2022-10-22T02:32:40.347Z,14.23
2022-10-22T02:35:11.513Z,14.25
2022-10-22T02:37:41.249Z,14.28
2022-10-22T02:40:10.447Z,14.25
2022-10-22T02:42:40.322Z,14.34
2022-10-22T02:45:09.174Z,14.32
2022-10-22T02:47:39.186Z,14.32
2022-10-22T02:50:10.321Z,14.23
2022-10-22T02:52:39.738Z,14.20
2022-10-22T02:55:08.928Z,14.19
2022-10-22T02:57:37.600Z,14.23
2022-10-22T03:00:07.752Z,14.23
2022-10-22T03:02:38.541Z,14.21
2022-10-22T03:05:09.401Z,14.22
2022-10-22T03:07:37.905Z,14.18
2022-10-22T03:10:07.103Z,14.21
2022-10-22T03:12:35.302Z,14.21
2022-10-22T03:15:03.526Z,14.22
2022-10-22T03:17:31.689Z,14.27
2022-10-22T03:19:59.978Z,14.32
2022-10-22T03:22:31.681Z,14.32
2022-10-22T03:25:02.638Z,14.35
2022-10-22T03:27:31.753Z,14.33
2022-10-22T03:30:00.765Z,14.37
2022-10-22T03:32:28.991Z,14.39
2022-10-22T03:34:57.223Z,14.42
2022-10-22T03:37:26.535Z,14.45
2022-10-22T03:39:56.667Z,14.44
2022-10-22T03:42:25.525Z,14.43
2022-10-22T03:44:54.032Z,14.40
2022-10-22T03:47:24.447Z,14.35
2022-10-22T03:49:52.802Z,14.35
2022-10-22T03:52:20.980Z,14.33
2022-10-22T03:54:49.239Z,14.28
2022-10-22T03:57:19.581Z,14.30
2022-10-22T03:59:48.596Z,14.33
2022-10-22T04:02:16.769Z,14.42
2022-10-22T04:04:45.107Z,14.42
2022-10-22T04:07:13.252Z,14.47
2022-10-22T04:09:41.495Z,14.45
2022-10-22T04:12:09.752Z,14.47
2022-10-22T04:14:39.286Z,14.42
2022-10-22T04:17:07.536Z,14.37
2022-10-22T04:19:36.228Z,14.37
2022-10-22T04:22:04.566Z,14.35
2022-10-22T04:24:35.517Z,14.33
2022-10-22T04:27:03.992Z,14.35
2022-10-22T04:29:32.289Z,14.35
2022-10-22T04:32:01.839Z,14.34
2022-10-22T04:34:31.439Z,14.29
2022-10-22T04:36:59.678Z,14.28
2022-10-22T04:39:27.892Z,14.24
2022-10-22T04:41:56.244Z,14.19
2022-10-22T04:44:24.438Z,14.12
2022-10-22T04:46:55.081Z,14.07
2022-10-22T04:49:24.926Z,14.01
2022-10-22T04:51:53.102Z,13.97
2022-10-22T04:54:26.634Z,13.93
2022-10-22T04:56:57.072Z,13.96
2022-10-22T04:59:25.346Z,13.92
2022-10-22T05:01:53.524Z,13.95
2022-10-22T05:04:21.834Z,13.99
2022-10-22T05:06:52.128Z,13.96
2022-10-22T05:09:22.224Z,13.98
2022-10-22T05:11:52.882Z,13.97
2022-10-22T05:14:23.351Z,13.91
2022-10-22T05:16:53.005Z,13.89
2022-10-22T05:19:24.005Z,13.86
2022-10-22T05:21:55.431Z,13.86
2022-10-22T05:24:23.793Z,13.85
2022-10-22T05:26:52.872Z,13.82
2022-10-22T05:29:21.597Z,13.79
2022-10-22T05:31:49.814Z,13.78
2022-10-22T05:34:18.339Z,13.77
2022-10-22T05:36:49.294Z,13.66
2022-10-22T05:39:18.817Z,13.63
2022-10-22T05:41:47.100Z,13.60
2022-10-22T05:44:15.330Z,13.61
2022-10-22T05:46:44.275Z,13.55
2022-10-22T05:49:14.889Z,13.55
2022-10-22T05:51:43.108Z,13.56
2022-10-22T05:54:19.254Z,13.63
2022-10-22T05:56:47.567Z,13.61
2022-10-22T05:59:16.020Z,13.60
2022-10-22T06:01:44.384Z,13.64
2022-10-22T06:04:14.145Z,13.70
2022-10-22T06:06:45.266Z,13.78
2022-10-22T06:09:21.124Z,13.83
2022-10-22T06:11:50.794Z,13.86
2022-10-22T06:14:20.260Z,13.94
2022-10-22T06:16:48.943Z,14.00
2022-10-22T06:19:19.680Z,14.07
2022-10-22T06:21:48.577Z,14.10
2022-10-22T06:24:18.638Z,14.10
2022-10-22T06:26:46.930Z,14.12
2022-10-22T06:29:15.175Z,14.18
2022-10-22T06:31:43.401Z,14.28
2022-10-22T06:34:15.865Z,14.27
2022-10-22T06:36:45.913Z,14.25
2022-10-22T06:39:16.238Z,14.25
2022-10-22T06:41:45.915Z,14.28
2022-10-22T06:44:20.427Z,14.29
2022-10-22T06:46:52.092Z,14.37
2022-10-22T06:49:22.137Z,14.37
2022-10-22T06:51:51.465Z,14.41
2022-10-22T06:54:19.678Z,14.45
2022-10-22T06:56:49.529Z,14.51
2022-10-22T06:59:18.001Z,14.55
2022-10-22T07:01:47.089Z,14.59
2022-10-22T07:04:15.849Z,14.65
2022-10-22T07:06:44.020Z,14.62
2022-10-22T07:09:12.395Z,14.57
2022-10-22T07:11:42.928Z,14.63
2022-10-22T07:14:12.882Z,14.60
2022-10-22T07:16:43.123Z,14.64
2022-10-22T07:19:11.341Z,14.63
2022-10-22T07:21:39.840Z,14.64
2022-10-22T07:24:08.749Z,14.68
2022-10-22T07:26:37.664Z,14.78
2022-10-22T07:29:06.462Z,14.75
2022-10-22T07:31:36.597Z,14.81
2022-10-22T07:34:05.051Z,14.83
2022-10-22T07:36:33.273Z,14.80
2022-10-22T07:39:02.679Z,14.85
2022-10-22T07:41:31.584Z,14.95
2022-10-22T07:44:00.188Z,15.01
2022-10-22T07:46:28.713Z,15.08
2022-10-22T07:48:58.493Z,15.15
2022-10-22T07:51:28.091Z,15.25
2022-10-22T07:53:56.302Z,15.33
2022-10-22T07:56:24.579Z,15.39
2022-10-22T07:58:52.918Z,15.30
2022-10-22T08:01:21.232Z,15.27
2022-10-22T08:03:49.932Z,15.21
2022-10-22T08:06:19.538Z,15.23
2022-10-22T08:08:47.721Z,15.29
2022-10-22T08:11:16.312Z,15.41
2022-10-22T08:13:45.830Z,15.44
2022-10-22T08:16:15.609Z,15.42
2022-10-22T08:18:44.187Z,15.57
2022-10-22T08:21:12.485Z,15.60
2022-10-22T08:23:42.038Z,15.62
2022-10-22T08:26:10.439Z,15.55
2022-10-22T08:28:38.818Z,15.48
2022-10-22T08:31:08.501Z,15.53
2022-10-22T08:33:38.775Z,15.49
2022-10-22T08:36:07.985Z,15.56
2022-10-22T08:38:36.705Z,15.66
2022-10-22T08:41:11.138Z,15.63
2022-10-22T08:44:05.433Z,15.75
2022-10-22T08:46:45.977Z,15.82
2022-10-22T08:49:20.258Z,15.96
2022-10-22T08:51:48.756Z,15.97
2022-10-22T08:54:25.035Z,16.26
2022-10-22T08:57:07.845Z,16.35
2022-10-22T08:59:42.170Z,16.49
2022-10-22T09:02:27.140Z,16.49
2022-10-22T09:05:03.330Z,16.61
2022-10-22T09:07:31.712Z,16.78
2022-10-22T09:10:01.593Z,16.85
2022-10-22T09:12:31.300Z,16.76
2022-10-22T09:15:02.216Z,16.71
2022-10-22T09:17:37.016Z,16.81
2022-10-22T09:20:15.949Z,17.00
2022-10-22T09:22:51.600Z,17.08
2022-10-22T09:25:22.212Z,17.15
2022-10-22T09:27:54.382Z,17.18
2022-10-22T09:30:25.628Z,17.29
2022-10-22T09:33:00.342Z,17.37
2022-10-22T09:35:29.210Z,17.40
2022-10-22T09:37:58.139Z,17.60
2022-10-22T09:40:26.412Z,17.68
2022-10-22T09:42:56.028Z,17.68
2022-10-22T09:45:26.751Z,17.63
2022-10-22T09:48:10.721Z,17.73
2022-10-22T09:50:44.274Z,18.10
2022-10-22T09:53:15.883Z,17.92
2022-10-22T09:55:44.650Z,18.32
2022-10-22T09:58:15.348Z,18.05
2022-10-22T10:00:49.524Z,18.04
2022-10-22T10:03:20.583Z,18.03
2022-10-22T10:05:54.079Z,18.13
2022-10-22T10:08:23.523Z,18.13
2022-10-22T10:10:55.140Z,18.11
2022-10-22T10:13:39.375Z,17.92
2022-10-22T10:16:17.129Z,17.82
2022-10-22T10:19:01.603Z,17.43
2022-10-22T10:21:40.810Z,17.22
2022-10-22T10:24:17.855Z,17.43
2022-10-22T10:26:55.897Z,17.41
2022-10-22T10:29:40.437Z,17.66
2022-10-22T10:32:25.152Z,18.10
2022-10-22T10:35:04.352Z,18.02
2022-10-22T10:37:39.976Z,17.81
2022-10-22T10:40:23.002Z,17.73
2022-10-22T10:43:01.398Z,17.76
2022-10-22T10:45:38.206Z,17.56
2022-10-22T10:48:16.582Z,17.87
2022-10-22T10:50:58.010Z,17.75
2022-10-22T10:53:39.988Z,17.85
2022-10-22T10:56:18.037Z,17.98
2022-10-22T10:58:52.977Z,18.06
2022-10-22T11:01:29.051Z,18.13
2022-10-22T11:04:15.222Z,18.08
2022-10-22T11:06:45.531Z,18.14
2022-10-22T11:09:28.539Z,18.05
2022-10-22T11:11:59.301Z,17.65
2022-10-22T11:14:33.492Z,17.96
2022-10-22T11:17:10.284Z,18.05
2022-10-22T11:19:52.960Z,18.33
2022-10-22T11:22:27.675Z,19.03
2022-10-22T11:25:02.433Z,19.05
2022-10-22T11:27:37.108Z,19.13
2022-10-22T11:30:07.683Z,18.76
2022-10-22T11:32:37.462Z,18.98
2022-10-22T11:35:09.207Z,19.22
2022-10-22T11:37:39.534Z,19.05
2022-10-22T11:40:15.971Z,18.84
2022-10-22T11:42:53.175Z,19.06
2022-10-22T11:45:32.893Z,19.39
2022-10-22T11:48:16.034Z,19.97
2022-10-22T11:50:52.992Z,20.02
2022-10-22T11:53:30.689Z,20.33
2022-10-22T11:56:03.925Z,20.53
2022-10-22T11:58:36.202Z,20.17
2022-10-22T12:01:30.459Z,20.10
2022-10-22T12:04:22.542Z,19.83
2022-10-22T12:07:01.732Z,19.84
2022-10-22T12:09:32.802Z,19.13
2022-10-22T12:12:22.175Z,18.62
2022-10-22T12:14:55.768Z,18.07
2022-10-22T12:17:24.905Z,17.92
2022-10-22T12:20:02.216Z,17.77
2022-10-22T12:22:33.283Z,17.63
2022-10-22T12:25:03.201Z,17.63
2022-10-22T12:27:36.785Z,17.67
2022-10-22T12:30:18.941Z,17.91
2022-10-22T12:32:47.201Z,17.81
2022-10-22T12:35:19.941Z,18.24
2022-10-22T12:37:50.872Z,18.73
2022-10-22T12:40:21.722Z,18.67
2022-10-22T12:42:52.362Z,18.43
2022-10-22T12:45:21.581Z,18.61
2022-10-22T12:47:51.816Z,18.24
2022-10-22T12:50:24.407Z,18.12
2022-10-22T12:52:56.203Z,18.29
2022-10-22T12:55:26.984Z,18.50
2022-10-22T12:57:55.370Z,18.68
2022-10-22T13:00:26.301Z,18.69
2022-10-22T13:02:55.769Z,18.56
2022-10-22T13:05:28.042Z,18.71
2022-10-22T13:08:05.123Z,18.92
2022-10-22T13:10:34.918Z,18.87
2022-10-22T13:13:04.070Z,18.63
2022-10-22T13:15:38.304Z,18.47
2022-10-22T13:18:16.060Z,18.34
2022-10-22T13:20:58.907Z,18.51
2022-10-22T13:23:30.046Z,18.68
2022-10-22T13:26:00.503Z,19.13
2022-10-22T13:28:29.903Z,19.72
2022-10-22T13:30:59.234Z,19.71
2022-10-22T13:33:31.496Z,19.70
2022-10-22T13:36:01.190Z,19.84
2022-10-22T13:38:29.851Z,19.76
2022-10-22T13:40:59.331Z,19.60
2022-10-22T13:43:27.800Z,19.73
2022-10-22T13:45:59.128Z,19.30
2022-10-22T13:48:32.583Z,18.98
2022-10-22T13:51:02.308Z,18.61
2022-10-22T13:53:31.974Z,18.51
2022-10-22T13:56:00.262Z,18.38
2022-10-22T13:58:28.589Z,18.32
2022-10-22T14:00:59.029Z,18.24
2022-10-22T14:03:31.280Z,18.24
2022-10-22T14:05:59.638Z,18.40
2022-10-22T14:08:31.673Z,18.47
2022-10-22T14:10:59.927Z,18.73
2022-10-22T14:13:28.342Z,18.76
2022-10-22T14:15:56.625Z,18.72
2022-10-22T14:18:31.552Z,18.57
2022-10-22T14:21:04.825Z,18.64
2022-10-22T14:23:36.830Z,18.83
2022-10-22T14:26:08.867Z,19.02
2022-10-22T14:28:41.382Z,18.93
2022-10-22T14:31:20.252Z,18.77
2022-10-22T14:33:48.876Z,18.83
2022-10-22T14:36:18.891Z,18.73
2022-10-22T14:38:49.689Z,18.63
2022-10-22T14:41:21.658Z,18.48
2022-10-22T14:43:50.977Z,18.41
2022-10-22T14:46:21.055Z,18.44
2022-10-22T14:48:49.610Z,18.53
2022-10-22T14:51:19.471Z,18.46
2022-10-22T14:53:49.784Z,18.28
2022-10-22T14:56:21.254Z,18.25
2022-10-22T14:58:50.131Z,18.17
2022-10-22T15:01:18.649Z,18.14
2022-10-22T15:03:46.892Z,18.14
2022-10-22T15:06:15.049Z,18.13
2022-10-22T15:08:43.500Z,18.05
2022-10-22T15:11:14.091Z,18.02
2022-10-22T15:13:42.356Z,17.85
2022-10-22T15:16:12.572Z,17.77
2022-10-22T15:18:40.699Z,17.70
2022-10-22T15:21:14.464Z,17.60
2022-10-22T15:23:43.160Z,17.49
2022-10-22T15:26:14.076Z,17.41
2022-10-22T15:28:43.354Z,17.38
2022-10-22T15:31:13.818Z,17.38
2022-10-22T15:33:44.464Z,17.30
2022-10-22T15:36:14.693Z,17.25
2022-10-22T15:38:43.266Z,17.23
2022-10-22T15:41:13.989Z,17.25
2022-10-22T15:43:42.186Z,17.24
2022-10-22T15:46:13.655Z,17.20
2022-10-22T15:48:42.421Z,17.19
2022-10-22T15:51:12.049Z,17.17
2022-10-22T15:53:40.333Z,17.07
2022-10-22T15:56:09.548Z,17.05
2022-10-22T15:58:39.149Z,16.95
2022-10-22T16:01:08.471Z,16.85
2022-10-22T16:03:36.970Z,16.70
2022-10-22T16:06:07.171Z,16.62
2022-10-22T16:08:35.873Z,16.49
2022-10-22T16:11:04.595Z,16.41
2022-10-22T16:13:32.929Z,16.30
2022-10-22T16:16:07.038Z,16.20
2022-10-22T16:18:35.519Z,16.08
2022-10-22T16:21:04.902Z,15.96
2022-10-22T16:23:33.117Z,15.81
2022-10-22T16:26:02.906Z,15.70
2022-10-22T16:31:10.595Z,15.54
2022-10-22T16:33:43.031Z,15.46
2022-10-22T16:36:18.943Z,15.36
2022-10-22T16:38:47.791Z,15.29
2022-10-22T16:41:18.507Z,15.23
2022-10-22T16:43:48.456Z,15.19
2022-10-22T16:46:20.253Z,15.22
2022-10-22T16:48:50.065Z,15.25
2022-10-22T16:51:20.427Z,15.30
2022-10-22T16:53:49.495Z,15.30
2022-10-22T16:56:18.862Z,15.19
2022-10-22T16:58:49.736Z,15.12
2022-10-22T17:01:21.166Z,15.01
2022-10-22T17:03:49.597Z,14.92
2022-10-22T17:06:17.747Z,14.92
2022-10-22T17:08:45.936Z,14.84
2022-10-22T17:11:17.330Z,14.82
2022-10-22T17:13:46.904Z,14.80
2022-10-22T17:16:17.436Z,14.78
2022-10-22T17:18:47.941Z,14.80
2022-10-22T17:21:17.101Z,14.82
2022-10-22T17:23:45.656Z,14.81
2022-10-22T17:26:17.472Z,14.78
2022-10-22T17:28:46.189Z,14.67
2022-10-22T17:31:18.853Z,14.66
2022-10-22T17:33:50.897Z,14.55
2022-10-22T17:36:19.659Z,14.52
2022-10-22T17:38:51.499Z,14.43
2022-10-22T17:41:21.940Z,14.39
2022-10-22T17:43:50.238Z,14.37
2022-10-22T17:46:19.951Z,14.35
2022-10-22T17:48:53.065Z,14.30
2022-10-22T17:51:23.039Z,14.29
2022-10-22T17:53:51.497Z,14.25
2022-10-22T17:56:21.122Z,14.24
2022-10-22T17:58:50.014Z,14.19
2022-10-22T18:01:20.964Z,14.20
2022-10-22T18:03:53.343Z,14.21
2022-10-22T18:06:22.008Z,14.14
2022-10-22T18:08:50.437Z,14.13
2022-10-22T18:11:21.209Z,14.12
2022-10-22T18:13:50.313Z,14.13
2022-10-22T18:16:18.907Z,14.11
2022-10-22T18:18:48.438Z,14.10
2022-10-22T18:21:18.665Z,14.07
2022-10-22T18:23:47.523Z,14.07
2022-10-22T18:26:17.910Z,14.12
2022-10-22T18:28:48.754Z,14.06
2022-10-22T18:31:20.227Z,14.10
2022-10-22T18:33:48.898Z,14.07
2022-10-22T18:36:21.490Z,14.06
2022-10-22T18:38:50.932Z,14.00
2022-10-22T18:41:19.394Z,13.97
2022-10-22T18:43:51.699Z,13.92
2022-10-22T18:46:19.985Z,13.86
2022-10-22T18:48:48.361Z,13.88
2022-10-22T18:51:18.365Z,13.86
2022-10-22T18:53:59.061Z,13.83
2022-10-22T18:56:33.906Z,13.82
2022-10-22T18:59:02.189Z,13.85
2022-10-22T19:01:30.581Z,13.89
2022-10-22T19:03:58.973Z,13.93
2022-10-22T19:06:34.562Z,14.00
2022-10-22T19:09:06.074Z,14.08
2022-10-22T19:11:36.522Z,14.14
2022-10-22T19:14:04.849Z,14.19
2022-10-22T19:16:34.792Z,14.28
2022-10-22T19:19:04.994Z,14.34
2022-10-22T19:21:34.903Z,14.45
2022-10-22T19:24:03.176Z,14.49
2022-10-22T19:26:32.035Z,14.44
2022-10-22T19:29:01.133Z,14.51
2022-10-22T19:31:31.293Z,14.43
2022-10-22T19:34:00.578Z,14.42
2022-10-22T19:36:32.643Z,14.43
2022-10-22T19:39:03.642Z,14.43
2022-10-22T19:41:32.937Z,14.47
2022-10-22T19:44:01.864Z,14.49
2022-10-22T19:46:32.559Z,14.53
2022-10-22T19:49:00.979Z,14.58
2022-10-22T19:51:31.447Z,14.59
2022-10-22T19:54:01.140Z,14.59
2022-10-22T19:56:31.345Z,14.52
2022-10-22T19:58:59.889Z,14.51
2022-10-22T20:01:28.727Z,14.51
2022-10-22T20:03:56.943Z,14.44
2022-10-22T20:06:25.235Z,14.40
2022-10-22T20:08:56.032Z,14.38
2022-10-22T20:11:27.005Z,14.35
2022-10-22T20:13:57.610Z,14.26
2022-10-22T20:16:28.564Z,14.26
2022-10-22T20:19:00.453Z,14.20
2022-10-22T20:21:29.089Z,14.12
2022-10-22T20:23:57.656Z,14.13
2022-10-22T20:26:28.195Z,14.07
2022-10-22T20:28:59.227Z,14.10
2022-10-22T20:31:30.057Z,14.19
2022-10-22T20:33:59.519Z,14.28
2022-10-22T20:36:31.154Z,14.33
2022-10-22T20:39:02.129Z,14.37
2022-10-22T20:41:30.831Z,14.34
2022-10-22T20:44:00.642Z,14.35
2022-10-22T20:46:30.784Z,14.30
2022-10-22T20:49:02.385Z,14.36
2022-10-22T20:51:30.733Z,14.47
2022-10-22T20:53:58.941Z,14.44
2022-10-22T20:56:28.008Z,14.41
2022-10-22T20:59:04.465Z,14.44
2022-10-22T21:01:36.738Z,14.41
2022-10-22T21:04:05.563Z,14.34
2022-10-22T21:06:37.846Z,14.30
2022-10-22T21:09:07.102Z,14.25
2022-10-22T21:11:35.845Z,14.30
2022-10-22T21:14:04.870Z,14.34
2022-10-22T21:16:34.863Z,14.40
2022-10-22T21:19:03.334Z,14.45
2022-10-22T21:21:31.670Z,14.54
2022-10-22T21:23:59.908Z,14.59
2022-10-22T21:26:28.467Z,14.59
2022-10-22T21:28:56.729Z,14.63
2022-10-22T21:31:26.279Z,14.60
2022-10-22T21:33:55.987Z,14.54
2022-10-22T21:36:25.085Z,14.55
2022-10-22T21:38:53.837Z,14.58
2022-10-22T21:41:23.890Z,14.53
2022-10-22T21:43:52.903Z,14.54
2022-10-22T21:46:23.197Z,14.55
2022-10-22T21:48:56.208Z,14.55
2022-10-22T21:51:25.580Z,14.53
2022-10-22T21:53:54.769Z,14.49
2022-10-22T21:56:24.323Z,14.42
2022-10-22T21:58:52.779Z,14.34
2022-10-22T22:01:21.392Z,14.33
2022-10-22T22:03:50.923Z,14.36
2022-10-22T22:06:25.647Z,14.35
2022-10-22T22:08:56.466Z,14.32
2022-10-22T22:11:27.000Z,14.28
2022-10-22T22:13:58.236Z,14.24
2022-10-22T22:16:29.362Z,14.26
2022-10-22T22:18:58.976Z,14.21
2022-10-22T22:21:29.690Z,14.23
2022-10-22T22:24:01.017Z,14.18
2022-10-22T22:26:32.719Z,14.11
2022-10-22T22:29:01.669Z,14.06
2022-10-22T22:31:33.642Z,14.03
2022-10-22T22:34:03.857Z,13.98
2022-10-22T22:36:37.002Z,14.00
2022-10-22T22:39:06.490Z,14.04
2022-10-22T22:41:35.140Z,14.00
2022-10-22T22:44:03.530Z,14.01
2022-10-22T22:46:31.914Z,13.93
2022-10-22T22:49:00.204Z,14.00
2022-10-22T22:51:28.812Z,13.98
2022-10-22T22:54:00.229Z,14.01
2022-10-22T22:56:30.278Z,14.03
2022-10-22T22:58:59.217Z,14.10
2022-10-22T23:01:29.058Z,14.12
2022-10-22T23:03:58.730Z,14.15
2022-10-22T23:06:28.691Z,14.19
2022-10-22T23:08:57.373Z,14.19
2022-10-22T23:11:28.797Z,14.22
2022-10-22T23:13:59.399Z,14.24
2022-10-22T23:16:30.392Z,14.21
2022-10-22T23:18:59.326Z,14.21
2022-10-22T23:21:29.819Z,14.22
2022-10-22T23:24:00.018Z,14.22
2022-10-22T23:26:31.294Z,14.21
2022-10-22T23:29:01.761Z,14.15
2022-10-22T23:31:30.157Z,14.14
2022-10-22T23:33:58.585Z,14.11
2022-10-22T23:36:27.182Z,14.07
2022-10-22T23:38:55.672Z,14.09
2022-10-22T23:41:24.109Z,14.07
2022-10-22T23:43:55.894Z,14.10
2022-10-22T23:46:24.151Z,14.09
2022-10-22T23:48:53.744Z,14.10
2022-10-22T23:51:22.659Z,14.06
2022-10-22T23:53:55.829Z,14.05
2022-10-22T23:56:24.045Z,14.07
2022-10-22T23:58:54.535Z,14.04
